Time;durP1;ratioP1;P1;durP2;ratioP2;P2;SDS_P1;SDS_P2;PMS_P1;PMS_P2;Temp;Humidity;BMP_temperature;BMP_pressure;BME280_temperature;BME280_humidity;BME280_pressure;Samples;Min_cycle;Max_cycle;Signal;HPM_P1;HPM_P2
2020/12/29 00:01:47;;;;;;;31.10;16.30;;;4.40;99.90;;;;;;5053144;28;20673;-80
2020/12/29 00:04:18;;;;;;;35.38;15.48;;;4.40;99.90;;;;;;5070935;28;20492;-80
2020/12/29 00:06:45;;;;;;;;;;;4.30;99.90;;;;;;5080465;28;20043;-79
2020/12/29 00:09:11;;;;;;;28.48;15.60;;;4.20;99.90;;;;;;5073798;28;19919;-80
2020/12/29 00:11:36;;;;;;;34.95;15.93;;;4.30;99.90;;;;;;5052867;28;20028;-80
2020/12/29 00:14:02;;;;;;;31.77;16.73;;;4.20;99.90;;;;;;5054050;28;20115;-80
2020/12/29 00:16:29;;;;;;;30.00;16.77;;;4.20;99.90;;;;;;5046787;28;20029;-79
2020/12/29 00:18:56;;;;;;;27.90;14.27;;;4.30;99.90;;;;;;5052959;28;20572;-80
2020/12/29 00:21:22;;;;;;;30.05;16.10;;;4.20;99.90;;;;;;5071831;28;20058;-80
2020/12/29 00:23:48;;;;;;;30.73;16.77;;;4.20;99.90;;;;;;5060919;28;20110;-80
2020/12/29 00:26:14;;;;;;;32.70;16.75;;;4.20;99.90;;;;;;5057587;28;20028;-80
2020/12/29 00:28:40;;;;;;;28.73;15.65;;;4.10;99.90;;;;;;5074686;28;20487;-79
2020/12/29 00:31:06;;;;;;;28.05;15.65;;;4.10;99.90;;;;;;5053182;28;20366;-80
2020/12/29 00:33:32;;;;;;;32.88;16.45;;;4.20;99.90;;;;;;5070245;28;20116;-80
2020/12/29 00:35:58;;;;;;;30.00;16.95;;;4.10;99.90;;;;;;5062048;28;20107;-80
2020/12/29 00:38:25;;;;;;;30.63;16.58;;;4.10;99.90;;;;;;5052327;28;20111;-79
2020/12/29 00:40:52;;;;;;;33.00;17.10;;;4.10;99.90;;;;;;5052528;28;20086;-80
2020/12/29 00:43:17;;;;;;;32.88;17.73;;;4.10;99.90;;;;;;5043409;28;20036;-80
2020/12/29 00:45:43;;;;;;;43.50;18.55;;;4.10;99.90;;;;;;5069949;28;20086;-80
2020/12/29 00:48:08;;;;;;;32.15;18.48;;;4.10;99.90;;;;;;5055625;28;20442;-79
2020/12/29 00:50:34;;;;;;;32.38;17.27;;;4.10;99.90;;;;;;5064187;28;20024;-80
2020/12/29 00:53:00;;;;;;;30.05;16.75;;;4.10;99.90;;;;;;5067356;28;20036;-80
2020/12/29 00:55:27;;;;;;;42.45;19.15;;;4.10;99.90;;;;;;5051673;28;20025;-80
2020/12/29 00:57:52;;;;;;;33.25;18.85;;;4.10;99.90;;;;;;5051801;28;20020;-80
2020/12/29 01:00:18;;;;;;;38.88;19.77;;;4.00;99.90;;;;;;5065632;28;20023;-80
2020/12/29 01:02:43;;;;;;;35.63;19.23;;;4.00;99.90;;;;;;5068935;28;20162;-80
2020/12/29 01:05:09;;;;;;;34.00;18.27;;;4.00;99.90;;;;;;5062138;28;20047;-79
2020/12/29 01:07:38;;;;;;;41.53;20.15;;;4.00;99.90;;;;;;5063248;28;20024;-80
2020/12/29 01:10:05;;;;;;;41.63;20.88;;;4.00;99.90;;;;;;5064116;28;20044;-79
2020/12/29 01:12:31;;;;;;;34.47;18.52;;;4.00;99.90;;;;;;5085357;28;20054;-79
2020/12/29 01:14:57;;;;;;;36.53;19.48;;;4.00;99.90;;;;;;5050317;28;20086;-80
2020/12/29 01:17:22;;;;;;;41.15;20.50;;;4.00;99.90;;;;;;5069560;28;20024;-80
2020/12/29 01:19:48;;;;;;;33.17;18.35;;;3.90;99.90;;;;;;5051348;28;20042;-80
2020/12/29 01:22:15;;;;;;;38.13;19.73;;;3.90;99.90;;;;;;5069324;28;20057;-80
2020/12/29 01:24:41;;;;;;;37.70;20.52;;;3.90;99.90;;;;;;5053571;28;20041;-80
2020/12/29 01:27:07;;;;;;;38.10;20.30;;;3.90;99.90;;;;;;5076498;28;20488;-80
2020/12/29 01:29:32;;;;;;;37.67;19.38;;;3.90;99.90;;;;;;5051124;28;20028;-80
2020/12/29 01:31:59;;;;;;;40.10;19.80;;;3.90;99.90;;;;;;5051786;28;20070;-79
2020/12/29 01:34:25;;;;;;;41.55;21.15;;;3.90;99.90;;;;;;5052383;28;20025;-80
2020/12/29 01:36:51;;;;;;;41.72;20.85;;;3.90;99.90;;;;;;5071774;28;20043;-80
2020/12/29 01:39:17;;;;;;;44.42;22.05;;;3.90;99.90;;;;;;5074651;28;20483;-80
2020/12/29 01:41:43;;;;;;;46.10;20.40;;;4.00;99.90;;;;;;5077629;28;20040;-80
2020/12/29 01:44:16;;;;;;;39.38;20.65;;;4.00;99.90;;;;;;5061229;28;20055;-80
2020/12/29 01:46:48;;;;;;;39.63;19.58;;;4.00;99.90;;;;;;5062196;28;20115;-80
2020/12/29 01:49:13;;;;;;;;;;;4.00;99.90;;;;;;5071189;28;20028;-80
2020/12/29 01:51:39;;;;;;;40.85;20.25;;;4.00;99.90;;;;;;5069317;28;19912;-80
2020/12/29 01:54:05;;;;;;;41.78;21.35;;;4.00;99.90;;;;;;5051306;28;20086;-80
2020/12/29 01:56:41;;;;;;;44.55;21.27;;;4.00;99.90;;;;;;5051040;28;20068;-80
2020/12/29 01:59:11;;;;;;;46.80;22.85;;;4.00;99.90;;;;;;5054859;28;20037;-80
2020/12/29 02:01:38;;;;;;;39.03;21.50;;;4.00;99.90;;;;;;5051445;28;20024;-80
2020/12/29 02:04:07;;;;;;;46.15;21.52;;;4.00;99.90;;;;;;5075011;28;20074;-79
2020/12/29 02:06:37;;;;;;;43.97;22.08;;;4.00;99.90;;;;;;5052790;28;20082;-80
2020/12/29 02:09:04;;;;;;;42.08;21.23;;;4.00;99.90;;;;;;5050924;28;20060;-79
2020/12/29 02:11:30;;;;;;;37.75;20.30;;;4.00;99.90;;;;;;5050674;28;20381;-80
2020/12/29 02:13:56;;;;;;;42.67;21.38;;;4.10;99.90;;;;;;5069907;28;20028;-80
2020/12/29 02:16:22;;;;;;;45.70;21.88;;;4.00;99.90;;;;;;5070867;28;20103;-80
2020/12/29 02:18:47;;;;;;;37.78;20.38;;;4.00;99.90;;;;;;5054586;28;20502;-80
2020/12/29 02:21:13;;;;;;;36.40;20.50;;;4.00;99.90;;;;;;5055244;28;20056;-79
2020/12/29 02:23:39;;;;;;;40.38;20.63;;;4.00;99.90;;;;;;5061367;28;20131;-80
2020/12/29 02:26:04;;;;;;;37.28;21.77;;;4.00;99.90;;;;;;5054896;28;20107;-79
2020/12/29 02:28:30;;;;;;;39.30;21.48;;;4.10;99.90;;;;;;5054867;28;20062;-80
2020/12/29 02:30:56;;;;;;;36.22;18.08;;;4.00;99.90;;;;;;5054760;28;20461;-79
2020/12/29 02:33:21;;;;;;;39.00;20.58;;;4.00;99.90;;;;;;5054354;28;20036;-79
2020/12/29 02:35:47;;;;;;;37.72;19.83;;;3.90;99.90;;;;;;5055139;28;20435;-79
2020/12/29 02:38:13;;;;;;;40.90;21.25;;;3.90;99.90;;;;;;5054832;28;20020;-79
2020/12/29 02:40:38;;;;;;;39.55;21.15;;;3.90;99.90;;;;;;5054056;28;20067;-79
2020/12/29 02:43:04;;;;;;;33.35;19.27;;;4.00;99.90;;;;;;5053845;28;20046;-80
2020/12/29 02:45:30;;;;;;;37.65;20.63;;;4.00;99.90;;;;;;5071686;28;20417;-79
2020/12/29 02:47:55;;;;;;;34.28;19.23;;;4.00;99.90;;;;;;5068322;28;20020;-79
2020/12/29 02:50:21;;;;;;;37.58;20.20;;;4.00;99.90;;;;;;5054396;28;20461;-80
2020/12/29 02:52:46;;;;;;;40.97;22.15;;;4.10;99.90;;;;;;5054213;28;20074;-80
2020/12/29 02:55:12;;;;;;;38.85;20.27;;;4.10;99.90;;;;;;5072183;28;20456;-80
2020/12/29 02:57:38;;;;;;;38.40;20.17;;;4.10;99.90;;;;;;5055463;28;20020;-79
2020/12/29 03:00:05;;;;;;;40.08;22.25;;;4.10;99.90;;;;;;5073711;28;20024;-80
2020/12/29 03:02:30;;;;;;;38.63;21.52;;;4.10;99.90;;;;;;5081618;28;20092;-80
2020/12/29 03:05:01;;;;;;;42.60;21.63;;;4.10;99.90;;;;;;5054409;28;20548;-80
2020/12/29 03:07:27;;;;;;;39.63;22.65;;;4.10;99.90;;;;;;5054175;28;20413;-80
2020/12/29 03:09:52;;;;;;;39.80;22.67;;;4.10;99.90;;;;;;5053227;28;20032;-80
2020/12/29 03:12:18;;;;;;;40.88;23.02;;;4.00;99.90;;;;;;5054166;28;20483;-80
2020/12/29 03:14:43;;;;;;;43.92;22.67;;;4.00;99.90;;;;;;5054250;28;20139;-80
2020/12/29 03:17:09;;;;;;;43.72;23.13;;;4.00;99.90;;;;;;5053726;28;20023;-79
2020/12/29 03:19:36;;;;;;;40.15;21.23;;;4.00;99.90;;;;;;5056550;28;20025;-80
2020/12/29 03:22:02;;;;;;;39.67;21.38;;;4.10;99.90;;;;;;5056599;28;20173;-80
2020/12/29 03:24:27;;;;;;;42.97;22.63;;;4.00;99.90;;;;;;5057209;28;20557;-80
2020/12/29 03:26:53;;;;;;;44.90;23.63;;;4.10;99.90;;;;;;5053149;28;20123;-80
2020/12/29 03:29:19;;;;;;;42.78;23.38;;;4.10;99.90;;;;;;5076001;28;20113;-80
2020/12/29 03:31:45;;;;;;;46.88;23.20;;;4.00;99.90;;;;;;5085018;28;20066;-80
2020/12/29 03:34:26;;;;;;;41.17;22.30;;;4.10;99.90;;;;;;5053734;28;20433;-80
2020/12/29 03:36:52;;;;;;;37.88;21.73;;;4.00;99.90;;;;;;5053932;28;20025;-80
2020/12/29 03:39:19;;;;;;;42.20;24.27;;;4.00;99.90;;;;;;5052824;28;20531;-79
2020/12/29 03:41:45;;;;;;;46.65;24.10;;;4.00;99.90;;;;;;5075761;28;20024;-80
2020/12/29 03:44:11;;;;;;;55.78;23.23;;;4.00;99.90;;;;;;5057773;28;20400;-80
2020/12/29 03:46:37;;;;;;;44.03;24.98;;;4.00;99.90;;;;;;5071477;28;20434;-79
2020/12/29 03:49:03;;;;;;;47.13;24.60;;;4.00;99.90;;;;;;5070973;28;20024;-79
2020/12/29 03:51:29;;;;;;;49.90;25.10;;;4.00;99.90;;;;;;5053688;28;20047;-79
2020/12/29 03:53:55;;;;;;;48.55;26.33;;;4.00;99.90;;;;;;5071384;28;20079;-79
2020/12/29 03:56:20;;;;;;;51.15;26.45;;;4.00;99.90;;;;;;5067978;28;20024;-79
2020/12/29 03:58:46;;;;;;;46.40;25.00;;;3.90;99.90;;;;;;5061751;28;20051;-80
2020/12/29 04:01:11;;;;;;;52.78;27.33;;;3.90;99.90;;;;;;5060723;28;20021;-80
2020/12/29 04:03:37;;;;;;;53.78;27.70;;;3.90;99.90;;;;;;5058785;28;20105;-80
2020/12/29 04:06:03;;;;;;;50.20;27.55;;;3.90;99.90;;;;;;5054355;28;20025;-80
2020/12/29 04:08:29;;;;;;;54.60;27.17;;;3.90;99.90;;;;;;5052770;28;20033;-80
2020/12/29 04:10:54;;;;;;;54.92;29.60;;;3.90;99.90;;;;;;5022285;28;20119;-79
2020/12/29 04:13:20;;;;;;;53.63;27.00;;;3.90;99.90;;;;;;5011246;28;20033;-80
2020/12/29 04:15:45;;;;;;;56.35;29.42;;;3.90;99.90;;;;;;5037117;28;20046;-80
2020/12/29 04:18:11;;;;;;;59.58;30.58;;;4.00;99.90;;;;;;5032199;28;20499;-80
2020/12/29 04:20:37;;;;;;;62.97;30.80;;;3.90;99.90;;;;;;5031514;28;20041;-80
2020/12/29 04:23:02;;;;;;;62.70;32.08;;;4.00;99.90;;;;;;5037475;28;20036;-80
2020/12/29 04:25:28;;;;;;;65.53;32.08;;;4.00;99.90;;;;;;5026483;28;20065;-80
2020/12/29 04:27:53;;;;;;;63.72;31.90;;;4.10;99.90;;;;;;5008252;28;20056;-79
2020/12/29 04:30:19;;;;;;;70.25;33.67;;;4.10;99.90;;;;;;5011637;28;20042;-80
2020/12/29 04:32:48;;;;;;;67.07;32.28;;;4.10;99.90;;;;;;5011350;28;20092;-80
2020/12/29 04:35:14;;;;;;;64.97;32.78;;;4.10;99.90;;;;;;5027045;28;20029;-80
2020/12/29 04:37:40;;;;;;;64.57;33.70;;;4.10;99.90;;;;;;5027753;28;20036;-80
2020/12/29 04:40:06;;;;;;;69.07;35.50;;;4.10;99.90;;;;;;5007610;28;20025;-80
2020/12/29 04:42:31;;;;;;;69.68;34.92;;;4.10;99.90;;;;;;5060581;28;20080;-80
2020/12/29 04:44:57;;;;;;;66.38;34.92;;;4.20;99.90;;;;;;5064757;28;20480;-80
2020/12/29 04:47:29;;;;;;;70.82;33.70;;;4.20;99.90;;;;;;5054319;28;20116;-80
2020/12/29 04:49:56;;;;;;;66.93;35.97;;;4.30;99.90;;;;;;5067131;28;20485;-80
2020/12/29 04:52:22;;;;;;;64.53;34.67;;;4.30;99.90;;;;;;5052176;28;20469;-80
2020/12/29 04:54:52;;;;;;;64.35;34.67;;;4.40;99.90;;;;;;5067968;28;20036;-78
2020/12/29 04:57:17;;;;;;;65.65;35.17;;;4.30;99.90;;;;;;5051942;28;20047;-80
2020/12/29 04:59:44;;;;;;;63.97;33.53;;;4.30;99.90;;;;;;5051267;28;20047;-80
2020/12/29 05:02:09;;;;;;;68.88;34.30;;;4.30;99.90;;;;;;5062917;28;20024;-80
2020/12/29 05:04:35;;;;;;;61.55;32.53;;;4.40;99.90;;;;;;5055006;28;20040;-80
2020/12/29 05:07:00;;;;;;;61.50;33.13;;;4.30;99.90;;;;;;5071481;28;20023;-80
2020/12/29 05:09:27;;;;;;;62.03;34.42;;;4.30;99.90;;;;;;5063271;28;20023;-80
2020/12/29 05:11:53;;;;;;;58.15;33.35;;;4.40;99.90;;;;;;5052671;28;20451;-80
2020/12/29 05:14:20;;;;;;;64.43;34.28;;;4.40;99.90;;;;;;5069192;28;20024;-80
2020/12/29 05:16:45;;;;;;;61.60;32.30;;;4.40;99.90;;;;;;5060812;28;20025;-80
2020/12/29 05:19:16;;;;;;;61.70;33.83;;;4.40;99.90;;;;;;5051366;28;20556;-81
2020/12/29 05:21:43;;;;;;;59.30;29.90;;;4.50;99.90;;;;;;5051626;28;20025;-80
2020/12/29 05:24:15;;;;;;;59.90;31.55;;;4.50;99.90;;;;;;5045006;28;20060;-79
2020/12/29 05:26:42;;;;;;;58.03;31.65;;;4.40;99.90;;;;;;5068868;28;20071;-80
2020/12/29 05:29:11;;;;;;;57.72;30.95;;;4.40;99.90;;;;;;5055970;28;20104;-80
2020/12/29 05:31:37;;;;;;;58.28;32.03;;;4.50;99.90;;;;;;5053657;28;20036;-80
2020/12/29 05:34:04;;;;;;;57.50;31.23;;;4.50;99.90;;;;;;5049016;28;20044;-80
2020/12/29 05:36:39;;;;;;;53.58;30.70;;;4.50;99.90;;;;;;5050317;28;20032;-80
2020/12/29 05:39:08;;;;;;;55.20;29.90;;;4.50;99.90;;;;;;5053564;28;20052;-80
2020/12/29 05:41:40;;;;;;;58.08;31.55;;;4.50;99.90;;;;;;5067484;28;20078;-80
2020/12/29 05:44:07;;;;;;;62.33;31.52;;;4.50;99.90;;;;;;5050744;28;20040;-79
2020/12/29 05:46:33;;;;;;;54.50;29.75;;;4.50;99.90;;;;;;5050055;28;20028;-80
2020/12/29 05:49:00;;;;;;;61.88;31.88;;;4.50;99.90;;;;;;5064630;28;20029;-79
2020/12/29 05:51:26;;;;;;;51.88;30.83;;;4.40;99.90;;;;;;5051215;28;20028;-80
2020/12/29 05:54:01;;;;;;;54.13;30.50;;;4.40;99.90;;;;;;5050638;28;20029;-80
2020/12/29 05:56:29;;;;;;;53.63;30.70;;;4.40;99.90;;;;;;5049937;28;20060;-79
2020/12/29 05:58:56;;;;;;;50.10;28.08;;;4.30;99.90;;;;;;5050003;28;20031;-80
2020/12/29 06:01:22;;;;;;;56.15;30.95;;;4.30;99.90;;;;;;5049377;28;20029;-79
2020/12/29 06:03:49;;;;;;;59.42;31.08;;;4.30;99.90;;;;;;5050141;28;20040;-79
2020/12/29 06:06:16;;;;;;;54.33;29.15;;;4.30;99.90;;;;;;5050197;28;20021;-79
2020/12/29 06:08:42;;;;;;;58.88;30.92;;;4.30;99.90;;;;;;5033744;28;20478;-80
2020/12/29 06:11:20;;;;;;;56.30;30.67;;;4.20;99.90;;;;;;5060466;28;20773;-80
2020/12/29 06:13:47;;;;;;;60.83;32.38;;;4.20;99.90;;;;;;5060456;28;20026;-80
2020/12/29 06:16:17;;;;;;;52.72;30.02;;;4.20;99.90;;;;;;5049943;28;20024;-79
2020/12/29 06:18:47;;;;;;;57.75;32.00;;;4.20;99.90;;;;;;5049917;28;20024;-79
2020/12/29 06:21:18;;;;;;;58.17;31.90;;;4.20;99.90;;;;;;5049922;28;21547;-78
2020/12/29 06:23:50;;;;;;;52.42;29.73;;;4.20;99.90;;;;;;5049496;28;20043;-79
2020/12/29 06:26:19;;;;;;;54.88;30.45;;;4.20;99.90;;;;;;5066535;28;20033;-79
2020/12/29 06:28:50;;;;;;;56.55;31.25;;;4.20;99.90;;;;;;5047921;28;20085;-80
2020/12/29 06:31:25;;;;;;;51.63;29.33;;;4.30;99.90;;;;;;5051267;28;20032;-80
2020/12/29 06:33:54;;;;;;;60.10;32.65;;;4.20;99.90;;;;;;5050160;28;20162;-80
2020/12/29 06:36:21;;;;;;;51.53;30.50;;;4.20;99.90;;;;;;5050330;28;20044;-80
2020/12/29 06:38:48;;;;;;;54.25;30.15;;;4.20;99.90;;;;;;5049784;28;20127;-79
2020/12/29 06:41:16;;;;;;;57.92;30.85;;;4.20;99.90;;;;;;5066732;28;20025;-79
2020/12/29 06:43:43;;;;;;;51.58;30.33;;;4.10;99.90;;;;;;5044194;28;20172;-79
2020/12/29 06:46:14;;;;;;;63.97;32.03;;;4.20;99.90;;;;;;5045528;28;20025;-79
2020/12/29 06:48:41;;;;;;;63.22;30.35;;;4.10;99.90;;;;;;5048325;28;20142;-79
2020/12/29 06:51:15;;;;;;;49.05;29.88;;;4.10;99.90;;;;;;5045605;28;20025;-80
2020/12/29 06:53:43;;;;;;;53.47;30.50;;;4.10;99.90;;;;;;5045260;28;20029;-79
2020/12/29 06:56:19;;;;;;;53.75;31.13;;;4.00;99.90;;;;;;5045739;28;20042;-79
2020/12/29 06:58:45;;;;;;;50.97;29.83;;;4.10;99.90;;;;;;5047631;28;20028;-79
2020/12/29 07:01:25;;;;;;;57.28;29.30;;;4.00;99.90;;;;;;5049252;28;20029;-80
2020/12/29 07:04:05;;;;;;;54.22;29.90;;;4.00;99.90;;;;;;5045124;28;20048;-80
2020/12/29 07:06:32;;;;;;;53.33;30.23;;;4.00;99.90;;;;;;5055260;28;20333;-80
2020/12/29 07:09:07;;;;;;;50.63;30.33;;;3.90;99.90;;;;;;5051007;28;20363;-80
2020/12/29 07:11:33;;;;;;;55.10;32.10;;;3.90;99.90;;;;;;5056253;28;20033;-80
2020/12/29 07:14:05;;;;;;;53.90;30.80;;;3.80;99.90;;;;;;5050822;28;20017;-80
2020/12/29 07:16:31;;;;;;;51.67;31.02;;;3.80;99.90;;;;;;5048745;28;20056;-79
2020/12/29 07:19:12;;;;;;;54.92;31.00;;;3.80;99.90;;;;;;5059733;28;20021;-79
2020/12/29 07:21:38;;;;;;;56.40;31.55;;;3.70;99.90;;;;;;5049233;28;20056;-79
2020/12/29 07:24:07;;;;;;;54.13;31.08;;;3.60;99.90;;;;;;5051019;28;20096;-79
2020/12/29 07:26:37;;;;;;;58.83;32.72;;;3.60;99.90;;;;;;5050584;28;20056;-80
2020/12/29 07:29:06;;;;;;;51.55;29.48;;;3.60;99.90;;;;;;5054751;28;20552;-79
2020/12/29 07:31:39;;;;;;;51.92;29.45;;;3.60;99.90;;;;;;5051145;28;20029;-79
2020/12/29 07:34:10;;;;;;;56.80;32.55;;;3.50;99.90;;;;;;5048857;28;20017;-80
2020/12/29 07:36:37;;;;;;;57.25;30.80;;;3.50;99.90;;;;;;5055561;28;20115;-79
2020/12/29 07:39:03;;;;;;;53.10;30.10;;;3.50;99.90;;;;;;5052498;28;20021;-80
2020/12/29 07:41:29;;;;;;;56.35;29.17;;;3.50;99.90;;;;;;5055341;28;20086;-80
2020/12/29 07:43:54;;;;;;;54.15;31.13;;;3.50;99.90;;;;;;5048736;28;20047;-79
2020/12/29 07:46:20;;;;;;;48.50;30.77;;;3.50;99.90;;;;;;5050118;28;20030;-80
2020/12/29 07:48:48;;;;;;;53.78;31.35;;;3.50;99.90;;;;;;5053132;28;20469;-80
2020/12/29 07:51:13;;;;;;;51.35;30.10;;;3.50;99.90;;;;;;5048111;28;20044;-80
2020/12/29 07:53:39;;;;;;;55.97;31.75;;;3.50;99.90;;;;;;5055866;28;20500;-79
2020/12/29 07:56:05;;;;;;;55.15;31.00;;;3.50;99.90;;;;;;5049859;28;20037;-79
2020/12/29 07:58:30;;;;;;;46.47;27.55;;;3.50;99.90;;;;;;5051094;28;20535;-80
2020/12/29 08:01:02;;;;;;;54.13;31.23;;;3.50;99.90;;;;;;5051756;28;20059;-79
2020/12/29 08:03:28;;;;;;;50.75;28.60;;;3.40;99.90;;;;;;5039050;28;20045;-80
2020/12/29 08:05:53;;;;;;;54.33;29.50;;;3.40;99.90;;;;;;5047094;28;20540;-79
2020/12/29 08:08:20;;;;;;;59.85;32.03;;;3.40;99.90;;;;;;5052090;28;20033;-80
2020/12/29 08:10:46;;;;;;;53.00;30.23;;;3.30;99.90;;;;;;5048807;28;20396;-79
2020/12/29 08:13:14;;;;;;;60.60;29.13;;;3.40;99.90;;;;;;5049990;28;20025;-79
2020/12/29 08:15:41;;;;;;;50.53;28.52;;;3.50;99.90;;;;;;5047119;28;20063;-79
2020/12/29 08:18:16;;;;;;;60.08;32.13;;;3.60;99.90;;;;;;5046767;28;20119;-80
2020/12/29 08:20:47;;;;;;;50.45;27.83;;;3.60;99.90;;;;;;5045693;28;20051;-80
2020/12/29 08:23:13;;;;;;;43.50;26.77;;;3.60;99.90;;;;;;5048047;28;20021;-80
2020/12/29 08:25:46;;;;;;;48.67;25.77;;;3.70;99.90;;;;;;5045060;28;20033;-80
2020/12/29 08:28:12;;;;;;;50.33;27.88;;;3.70;99.90;;;;;;5049976;28;20017;-80
2020/12/29 08:30:38;;;;;;;44.53;26.50;;;3.60;99.90;;;;;;5050156;28;20029;-80
2020/12/29 08:33:05;;;;;;;41.28;25.70;;;3.70;99.90;;;;;;5044768;28;20199;-80
2020/12/29 08:35:52;;;;;;;48.95;25.27;;;3.70;99.90;;;;;;5048081;28;20068;-80
2020/12/29 08:38:30;;;;;;;49.28;24.77;;;3.80;99.90;;;;;;5044648;28;20033;-80
2020/12/29 08:41:04;;;;;;;40.65;23.00;;;3.80;99.90;;;;;;5046622;28;20044;-80
2020/12/29 08:43:30;;;;;;;49.22;23.90;;;3.80;99.90;;;;;;5060981;28;20072;-80
2020/12/29 08:46:04;;;;;;;41.53;23.83;;;3.80;99.90;;;;;;5053926;28;20383;-80
2020/12/29 08:48:30;;;;;;;41.03;22.75;;;3.90;99.90;;;;;;5044532;28;20044;-79
2020/12/29 08:50:56;;;;;;;38.83;22.95;;;4.00;99.90;;;;;;5060328;28;20071;-79
2020/12/29 08:53:26;;;;;;;41.75;23.08;;;4.00;99.90;;;;;;5066385;28;20035;-80
2020/12/29 08:55:52;;;;;;;41.47;23.55;;;4.00;99.90;;;;;;5047845;28;20476;-80
2020/12/29 08:58:25;;;;;;;36.40;22.17;;;4.00;99.90;;;;;;5050500;28;20016;-80
2020/12/29 09:00:52;;;;;;;38.28;22.67;;;4.00;99.90;;;;;;5066893;28;20036;-80
2020/12/29 09:03:22;;;;;;;38.92;23.20;;;4.10;99.90;;;;;;5065002;28;20074;-80
2020/12/29 09:05:53;;;;;;;37.15;23.08;;;4.10;99.90;;;;;;5053684;28;20152;-80
2020/12/29 09:08:29;;;;;;;36.28;22.23;;;4.10;99.90;;;;;;5052880;28;20123;-80
2020/12/29 09:11:11;;;;;;;37.03;21.98;;;4.10;99.90;;;;;;5052891;28;20075;-80
2020/12/29 09:13:37;;;;;;;40.45;23.00;;;4.10;99.90;;;;;;5051487;28;20024;-79
2020/12/29 09:16:12;;;;;;;37.60;23.02;;;4.10;99.90;;;;;;5047153;28;20070;-80
2020/12/29 09:18:43;;;;;;;39.30;23.50;;;4.10;99.90;;;;;;5052677;28;20082;-80
2020/12/29 09:21:22;;;;;;;40.80;22.67;;;4.20;99.90;;;;;;5054268;28;20024;-80
2020/12/29 09:23:58;;;;;;;43.72;22.75;;;4.20;99.90;;;;;;5051595;28;20047;-80
2020/12/29 09:26:24;;;;;;;41.83;22.38;;;4.30;99.90;;;;;;5061723;28;20111;-81
2020/12/29 09:28:50;;;;;;;38.10;21.70;;;4.30;99.90;;;;;;5071982;28;20119;-81
2020/12/29 09:31:15;;;;;;;35.75;21.92;;;4.40;99.90;;;;;;5030480;28;20028;-80
2020/12/29 09:33:42;;;;;;;50.15;23.38;;;4.40;99.90;;;;;;5062476;28;20025;-81
2020/12/29 09:36:23;;;;;;;36.42;21.63;;;4.40;99.90;;;;;;5052556;28;20024;-81
2020/12/29 09:38:52;;;;;;;36.35;22.00;;;4.40;99.90;;;;;;5049089;28;20070;-81
2020/12/29 09:41:18;;;;;;;38.95;20.83;;;4.40;99.90;;;;;;5048616;28;20029;-81
2020/12/29 09:43:45;;;;;;;36.70;21.00;;;4.40;99.90;;;;;;5048870;28;20062;-81
2020/12/29 09:46:11;;;;;;;41.63;20.77;;;4.50;99.90;;;;;;5069157;28;20136;-81
2020/12/29 09:48:37;;;;;;;35.53;20.33;;;4.50;99.90;;;;;;5065452;28;20115;-81
2020/12/29 09:51:03;;;;;;;37.85;21.17;;;4.50;99.90;;;;;;5047194;28;20483;-81
2020/12/29 09:53:29;;;;;;;35.40;21.40;;;4.40;99.90;;;;;;5050262;28;20115;-81
2020/12/29 09:55:56;;;;;;;34.13;20.27;;;4.30;99.90;;;;;;5048014;28;20123;-81
2020/12/29 09:58:22;;;;;;;33.78;20.05;;;4.40;99.90;;;;;;5043589;28;20051;-80
2020/12/29 10:00:49;;;;;;;36.35;20.40;;;4.40;99.90;;;;;;5047440;28;20400;-81
2020/12/29 10:03:15;;;;;;;37.83;21.40;;;4.40;99.90;;;;;;5066623;28;20017;-81
2020/12/29 10:05:40;;;;;;;38.58;21.45;;;4.40;99.90;;;;;;5051464;28;20055;-81
2020/12/29 10:08:06;;;;;;;34.92;21.20;;;4.40;99.90;;;;;;5070095;28;20473;-81
2020/12/29 10:10:32;;;;;;;33.05;18.95;;;4.50;99.90;;;;;;5050636;28;20100;-81
2020/12/29 10:12:58;;;;;;;41.80;19.67;;;4.60;99.90;;;;;;5046662;28;20469;-81
2020/12/29 10:15:24;;;;;;;35.50;18.83;;;4.60;99.90;;;;;;5046284;28;20094;-81
2020/12/29 10:17:49;;;;;;;30.17;19.08;;;4.70;99.90;;;;;;5045683;28;20052;-81
2020/12/29 10:20:16;;;;;;;31.83;18.98;;;4.80;99.90;;;;;;5050416;28;20059;-80
2020/12/29 10:22:42;;;;;;;28.77;18.13;;;4.80;99.90;;;;;;5044029;28;20029;-80
2020/12/29 10:25:14;;;;;;;31.42;19.45;;;4.80;99.90;;;;;;5049483;28;20054;-80
2020/12/29 10:27:46;;;;;;;39.30;19.58;;;4.80;99.90;;;;;;5048315;28;20044;-80
2020/12/29 10:30:13;;;;;;;32.30;18.88;;;4.80;99.90;;;;;;5046809;28;20028;-80
2020/12/29 10:32:39;;;;;;;33.55;17.25;;;4.80;99.90;;;;;;5042381;28;20031;-80
2020/12/29 10:35:05;;;;;;;31.88;18.17;;;4.80;99.90;;;;;;5045359;28;20029;-80
2020/12/29 10:37:31;;;;;;;32.63;17.13;;;4.80;99.90;;;;;;5047523;28;20117;-80
2020/12/29 10:39:57;;;;;;;40.63;22.10;;;4.90;99.90;;;;;;5073171;28;20070;-80
2020/12/29 10:42:22;;;;;;;35.75;18.02;;;4.90;99.90;;;;;;5058440;28;20032;-80
2020/12/29 10:44:48;;;;;;;42.80;22.27;;;4.90;99.90;;;;;;5070898;28;20058;-81
2020/12/29 10:47:14;;;;;;;35.08;19.33;;;4.90;99.90;;;;;;5021522;28;20536;-81
2020/12/29 10:49:40;;;;;;;37.20;18.60;;;5.00;99.90;;;;;;5007165;28;20401;-81
2020/12/29 10:52:05;;;;;;;27.13;17.05;;;5.00;99.90;;;;;;4989247;28;20057;-81
2020/12/29 10:54:31;;;;;;;26.75;16.65;;;5.00;99.90;;;;;;5007473;28;20475;-80
2020/12/29 10:56:56;;;;;;;31.42;17.85;;;5.00;99.90;;;;;;5007772;28;20127;-80
2020/12/29 10:59:22;;;;;;;27.88;16.48;;;5.00;99.90;;;;;;5007939;28;20034;-80
2020/12/29 11:01:48;;;;;;;29.58;17.20;;;4.90;99.90;;;;;;5006719;28;20387;-81
2020/12/29 11:04:13;;;;;;;27.80;15.95;;;5.00;99.90;;;;;;5020509;28;20042;-80
2020/12/29 11:06:39;;;;;;;32.63;17.98;;;5.00;99.90;;;;;;5006308;28;20125;-81
2020/12/29 11:09:05;;;;;;;27.15;16.80;;;5.10;99.90;;;;;;5019348;28;20102;-80
2020/12/29 11:11:31;;;;;;;37.42;19.15;;;5.00;99.90;;;;;;5004611;28;20118;-81
2020/12/29 11:13:56;;;;;;;36.85;19.88;;;5.10;99.90;;;;;;5022753;28;20502;-81
2020/12/29 11:16:22;;;;;;;40.60;21.25;;;5.00;99.90;;;;;;5005324;28;20069;-81
2020/12/29 11:18:49;;;;;;;46.25;20.08;;;5.00;99.90;;;;;;5040574;28;20207;-81
2020/12/29 11:21:17;;;;;;;41.05;22.13;;;5.10;99.90;;;;;;5050648;28;20040;-81
2020/12/29 11:23:44;;;;;;;39.97;22.15;;;5.10;99.90;;;;;;5056366;28;20476;-81
2020/12/29 11:26:13;;;;;;;47.75;23.33;;;5.10;99.90;;;;;;5052389;28;20027;-81
2020/12/29 11:28:39;;;;;;;42.83;23.17;;;5.20;99.90;;;;;;5069406;28;20031;-81
2020/12/29 11:31:05;;;;;;;39.28;22.13;;;5.20;99.90;;;;;;5048738;28;20033;-81
2020/12/29 11:33:32;;;;;;;43.35;23.52;;;5.30;99.90;;;;;;5036417;28;20043;-81
2020/12/29 11:35:58;;;;;;;48.28;24.02;;;5.30;99.90;;;;;;5049544;28;20032;-80
2020/12/29 11:38:23;;;;;;;43.45;25.15;;;5.30;99.90;;;;;;5068550;28;20032;-80
2020/12/29 11:40:50;;;;;;;44.50;25.30;;;5.40;99.90;;;;;;5049505;28;20067;-81
2020/12/29 11:43:15;;;;;;;45.83;23.98;;;5.50;99.90;;;;;;5067928;28;20098;-81
2020/12/29 11:45:44;;;;;;;54.25;26.35;;;5.60;99.90;;;;;;5045427;28;20040;-81
2020/12/29 11:48:10;;;;;;;49.85;25.98;;;5.70;99.90;;;;;;5048090;28;20167;-80
2020/12/29 11:50:35;;;;;;;44.35;25.23;;;5.80;99.90;;;;;;5069783;28;20108;-82
2020/12/29 11:53:01;;;;;;;48.83;24.98;;;6.00;99.90;;;;;;5050540;28;20087;-80
2020/12/29 11:55:27;;;;;;;46.95;22.25;;;6.30;99.90;;;;;;5050648;28;20081;-80
2020/12/29 11:57:52;;;;;;;41.65;22.85;;;6.70;99.90;;;;;;5068295;28;20032;-80
2020/12/29 12:00:18;;;;;;;36.88;21.50;;;6.80;99.90;;;;;;5065568;28;20039;-80
2020/12/29 12:02:44;;;;;;;42.72;20.90;;;7.30;99.90;;;;;;5050951;28;20485;-80
2020/12/29 12:05:11;;;;;;;33.42;20.73;;;7.40;99.90;;;;;;5051213;28;20426;-80
2020/12/29 12:07:37;;;;;;;36.95;21.55;;;7.20;99.90;;;;;;5068309;28;20036;-81
2020/12/29 12:10:04;;;;;;;34.45;19.75;;;7.30;99.90;;;;;;5056295;28;20416;-80
2020/12/29 12:12:30;;;;;;;36.95;21.00;;;6.90;99.90;;;;;;5049321;28;20024;-80
2020/12/29 12:14:56;;;;;;;34.47;21.00;;;6.50;99.90;;;;;;5050489;28;20060;-80
2020/12/29 12:17:21;;;;;;;37.75;21.20;;;6.20;99.90;;;;;;5050216;28;20051;-80
2020/12/29 12:19:47;;;;;;;34.05;20.40;;;6.10;99.90;;;;;;5044500;28;20044;-80
2020/12/29 12:22:12;;;;;;;34.85;21.25;;;6.00;99.90;;;;;;5051161;28;20032;-81
2020/12/29 12:24:38;;;;;;;34.78;20.13;;;6.00;99.90;;;;;;5033016;28;20036;-79
2020/12/29 12:27:04;;;;;;;32.38;20.13;;;6.10;99.90;;;;;;5053660;28;20148;-80
2020/12/29 12:29:29;;;;;;;33.30;19.52;;;6.30;99.90;;;;;;5067001;28;20028;-79
2020/12/29 12:31:55;;;;;;;32.25;20.05;;;6.30;99.90;;;;;;5047854;28;20419;-81
2020/12/29 12:34:20;;;;;;;37.15;19.35;;;6.40;99.90;;;;;;5044601;28;20040;-80
2020/12/29 12:36:46;;;;;;;38.25;20.50;;;6.10;99.90;;;;;;5051593;28;20024;-80
2020/12/29 12:39:12;;;;;;;36.95;21.52;;;6.00;99.90;;;;;;5065951;28;20035;-80